Time;durP1;ratioP1;P1;durP2;ratioP2;P2;SDS_P1;SDS_P2;PMS_P1;PMS_P2;Temp;Humidity;BMP_temperature;BMP_pressure;BME280_temperature;BME280_humidity;BME280_pressure;Samples;Min_cycle;Max_cycle;Signal;HPM_P1;HPM_P2
2022/01/15 00:00:34;;;;;;;60.85;21.17;;;;;;;-1.54;100.00;101931.81;5093719;28;20067;-52
2022/01/15 00:03:04;;;;;;;49.70;20.65;;;;;;;-1.36;100.00;101951.06;5093776;28;20056;-52
2022/01/15 00:05:32;;;;;;;55.83;21.90;;;;;;;-1.35;100.00;101952.84;5093682;28;20067;-52
2022/01/15 00:08:01;;;;;;;53.78;21.00;;;;;;;-1.29;100.00;101937.28;5096809;28;20052;-52
2022/01/15 00:10:30;;;;;;;60.33;22.85;;;;;;;-1.31;100.00;101933.81;5098242;28;20068;-52
2022/01/15 00:13:01;;;;;;;56.97;20.95;;;;;;;-1.22;100.00;101944.28;5099063;28;20051;-52
2022/01/15 00:15:32;;;;;;;63.95;21.25;;;;;;;-1.15;100.00;101945.22;5098524;28;20090;-52
2022/01/15 00:18:05;;;;;;;63.10;22.05;;;;;;;-1.18;100.00;101945.19;5097682;28;20139;-52
2022/01/15 00:20:33;;;;;;;63.60;22.38;;;;;;;-1.11;100.00;101946.97;5099024;28;20398;-52
2022/01/15 00:23:02;;;;;;;59.58;21.95;;;;;;;-1.14;100.00;101953.06;5098319;28;20056;-52
2022/01/15 00:25:32;;;;;;;64.25;23.75;;;;;;;-1.16;100.00;101952.16;5097636;28;20070;-52
2022/01/15 00:28:02;;;;;;;65.82;23.02;;;;;;;-1.17;100.00;101953.00;5098568;28;20059;-52
2022/01/15 00:30:30;;;;;;;65.60;22.95;;;;;;;-1.16;100.00;101946.97;5097324;28;20067;-52
2022/01/15 00:32:59;;;;;;;76.55;24.55;;;;;;;-1.08;100.00;101944.41;5097857;28;20067;-52
2022/01/15 00:35:28;;;;;;;73.95;24.35;;;;;;;-1.01;100.00;101937.53;5098231;28;20410;-52
2022/01/15 00:37:56;;;;;;;67.40;23.02;;;;;;;-0.91;100.00;101946.28;5098067;28;20055;-52
2022/01/15 00:40:24;;;;;;;64.05;23.13;;;;;;;-0.94;100.00;101939.34;5098291;28;20458;-52
2022/01/15 00:42:53;;;;;;;71.55;25.33;;;;;;;-0.81;100.00;101940.28;5097427;28;20062;-52
2022/01/15 00:45:22;;;;;;;72.97;25.52;;;;;;;-0.80;100.00;101936.84;5097562;28;20063;-52
2022/01/15 00:47:52;;;;;;;72.82;25.70;;;;;;;-0.71;100.00;101942.09;5097909;28;20059;-52
2022/01/15 00:50:20;;;;;;;81.00;28.60;;;;;;;-0.64;100.00;101928.28;5097324;28;20070;-52
2022/01/15 00:52:49;;;;;;;73.70;26.98;;;;;;;-0.64;100.00;101935.19;5097806;28;20118;-52
2022/01/15 00:55:19;;;;;;;75.93;27.67;;;;;;;-0.67;100.00;101927.34;5096923;28;20059;-52
2022/01/15 00:57:47;;;;;;;78.22;27.98;;;;;;;-0.75;100.00;101919.50;5097233;28;20060;-52
2022/01/15 01:00:19;;;;;;;72.32;26.98;;;;;;;-0.87;100.00;101917.69;5097665;28;20059;-52
2022/01/15 01:02:49;;;;;;;;;;;;;;;-0.95;100.00;101912.41;5098897;28;20063;-52
2022/01/15 01:05:18;;;;;;;74.95;25.33;;;;;;;-1.05;100.00;101904.50;5097560;28;20350;-52
2022/01/15 01:07:46;;;;;;;75.55;26.00;;;;;;;-1.12;100.00;101909.66;5097057;28;20055;-52
2022/01/15 01:10:39;;;;;;;71.43;25.75;;;;;;;-1.16;100.00;101914.81;5097167;28;20414;-52
2022/01/15 01:13:40;;;;;;;67.22;24.75;;;;;;;-1.39;100.00;101905.06;5096898;28;20485;-52
2022/01/15 01:24:28;;;;;;;71.95;26.20;;;;;;;-2.05;100.00;101904.38;5097261;28;20411;-52
2022/01/15 01:27:00;;;;;;;57.20;22.75;;;;;;;-2.19;100.00;101908.50;5096951;28;20491;-52
2022/01/15 01:29:39;;;;;;;;;;;;;;;-2.32;100.00;101897.97;5096715;28;20052;-52
2022/01/15 01:32:13;;;;;;;58.47;22.23;;;;;;;-2.36;100.00;101901.34;5096227;28;20011;-52
2022/01/15 01:34:44;;;;;;;57.67;23.25;;;;;;;-2.40;100.00;101884.00;5096864;28;20052;-52
2022/01/15 01:37:16;;;;;;;57.47;22.63;;;;;;;-2.50;100.00;101887.31;5097042;28;20052;-52
2022/01/15 01:39:49;;;;;;;71.70;26.42;;;;;;;-2.60;100.00;101881.13;5096065;28;20056;-52
2022/01/15 01:45:10;;;;;;;71.65;24.48;;;;;;;-2.75;100.00;101875.69;5091861;28;20060;-52
2022/01/15 01:47:41;;;;;;;64.60;24.25;;;;;;;-2.76;100.00;101874.81;5096974;28;20052;-52
2022/01/15 01:50:13;;;;;;;66.00;24.08;;;;;;;-2.77;100.00;101872.19;5096863;28;20056;-52
2022/01/15 01:52:42;;;;;;;69.97;24.40;;;;;;;-2.82;100.00;101873.00;5096925;28;20064;-52
2022/01/15 01:55:11;;;;;;;65.43;22.92;;;;;;;-2.81;100.00;101873.88;5096441;28;20056;-52
2022/01/15 01:57:41;;;;;;;56.35;22.65;;;;;;;-2.82;100.00;101872.13;5095953;28;20419;-52
2022/01/15 02:00:11;;;;;;;68.63;24.75;;;;;;;-2.90;100.00;101868.56;5096287;28;20056;-52
2022/01/15 02:02:39;;;;;;;61.85;22.45;;;;;;;-2.88;100.00;101874.63;5095917;28;20051;-52
2022/01/15 02:05:09;;;;;;;67.07;24.10;;;;;;;-2.94;100.00;101870.22;5095895;28;20058;-52
2022/01/15 02:07:39;;;;;;;65.32;24.52;;;;;;;-2.95;100.00;101857.22;5096730;28;20062;-52
2022/01/15 02:10:09;;;;;;;66.25;23.77;;;;;;;-2.97;100.00;101864.13;5095881;28;20056;-52
2022/01/15 02:12:37;;;;;;;70.07;24.05;;;;;;;-2.96;100.00;101863.25;5095698;28;20059;-52
2022/01/15 02:15:08;;;;;;;66.43;24.08;;;;;;;-2.99;100.00;101857.16;5095605;28;20052;-52
2022/01/15 02:17:36;;;;;;;77.82;26.17;;;;;;;-2.85;100.00;101853.91;5096725;28;20052;-52
2022/01/15 02:20:24;;;;;;;98.43;30.00;;;;;;;-2.80;100.00;101836.66;5095499;28;20533;-52
2022/01/15 02:25:42;;;;;;;110.53;30.88;;;;;;;-2.29;100.00;101851.19;5095210;28;20052;-52
2022/01/15 02:28:10;;;;;;;124.13;31.88;;;;;;;-2.15;100.00;101859.16;5095421;28;20542;-52
2022/01/15 02:30:39;;;;;;;120.55;31.75;;;;;;;-2.13;100.00;101857.47;5094744;28;20060;-52
2022/01/15 02:33:09;;;;;;;104.38;28.88;;;;;;;-2.07;100.00;101856.66;5095587;28;20060;-52
2022/01/15 02:35:39;;;;;;;274.58;33.85;;;;;;;-2.01;100.00;101855.88;5095869;28;20415;-52
2022/01/15 02:38:08;;;;;;;300.13;36.08;;;;;;;-2.04;100.00;101851.47;5096019;28;20052;-52
2022/01/15 02:40:37;;;;;;;176.95;35.13;;;;;;;-2.07;100.00;101848.84;5096076;28;20064;-52
2022/01/15 02:43:05;;;;;;;162.73;32.05;;;;;;;-2.03;100.00;101848.03;5095087;28;20056;-52
2022/01/15 02:45:35;;;;;;;323.98;37.97;;;;;;;-1.98;100.00;101848.97;5095181;28;20059;-53
2022/01/15 02:48:04;;;;;;;267.30;40.88;;;;;;;-1.98;100.00;101842.91;5095364;28;20056;-53
2022/01/15 02:50:32;;;;;;;261.63;37.17;;;;;;;-1.99;100.00;101839.41;5095902;28;20059;-53
2022/01/15 02:53:05;;;;;;;321.88;35.42;;;;;;;-2.04;100.00;101843.69;5095210;28;20070;-53
2022/01/15 02:55:33;;;;;;;133.07;26.63;;;;;;;-2.02;100.00;101839.38;5094661;28;20051;-52
2022/01/15 02:58:01;;;;;;;93.40;25.23;;;;;;;-2.02;100.00;101848.91;5095218;28;20056;-52
2022/01/15 03:00:29;;;;;;;145.25;27.10;;;;;;;-1.94;100.00;101837.72;5095100;28;20051;-52
2022/01/15 03:02:58;;;;;;;71.85;23.52;;;;;;;-1.93;100.00;101839.47;5095075;28;20086;-52
2022/01/15 03:05:26;;;;;;;102.22;25.55;;;;;;;-2.00;100.00;101832.47;5094496;28;20059;-52
2022/01/15 03:07:54;;;;;;;305.20;31.77;;;;;;;-2.01;100.00;101825.53;5094636;28;20056;-52
2022/01/15 03:10:24;;;;;;;122.13;25.05;;;;;;;-2.11;100.00;101837.53;5094979;28;20399;-52
2022/01/15 03:12:54;;;;;;;55.35;20.73;;;;;;;-2.17;100.00;101834.00;5095112;28;20067;-53
2022/01/15 03:15:22;;;;;;;70.90;21.75;;;;;;;-2.14;100.00;101832.28;5094293;28;20537;-53
2022/01/15 03:17:51;;;;;;;67.32;23.48;;;;;;;-2.18;100.00;101829.66;5094819;28;20056;-53
2022/01/15 03:20:21;;;;;;;77.88;22.20;;;;;;;-2.24;100.00;101833.03;5095634;28;20056;-52
2022/01/15 03:22:49;;;;;;;76.70;21.20;;;;;;;-2.25;100.00;101827.00;5094502;28;20056;-53
2022/01/15 03:25:17;;;;;;;71.30;21.38;;;;;;;-2.33;100.00;101820.81;5094200;28;20526;-53
2022/01/15 03:27:47;;;;;;;84.65;22.65;;;;;;;-2.31;100.00;101818.25;5094689;28;20063;-52
2022/01/15 03:30:16;;;;;;;112.80;23.10;;;;;;;-2.37;100.00;101815.56;5094653;28;20059;-53
2022/01/15 03:32:44;;;;;;;58.53;21.90;;;;;;;-2.39;100.00;101807.75;5094195;28;20510;-52
2022/01/15 03:35:14;;;;;;;68.75;22.42;;;;;;;-2.54;100.00;101802.34;5095395;28;20052;-52
2022/01/15 03:37:42;;;;;;;57.90;21.48;;;;;;;-2.56;100.00;101796.28;5094395;28;20062;-53
2022/01/15 03:40:13;;;;;;;56.53;21.05;;;;;;;-2.65;100.00;101795.31;5094483;28;20052;-52
2022/01/15 03:42:41;;;;;;;49.42;20.65;;;;;;;-2.72;100.00;101788.28;5095048;28;20060;-52
2022/01/15 03:45:13;;;;;;;57.10;20.35;;;;;;;-2.90;100.00;101777.66;5094426;28;20087;-53
2022/01/15 03:47:42;;;;;;;49.75;20.20;;;;;;;-2.86;100.00;101789.81;5093934;28;20056;-52
2022/01/15 03:50:11;;;;;;;62.35;21.88;;;;;;;-2.81;100.00;101790.75;5094386;28;20063;-52
2022/01/15 03:52:39;;;;;;;53.03;19.85;;;;;;;-2.97;100.00;101781.91;5094049;28;20060;-53
2022/01/15 03:55:09;;;;;;;53.50;22.00;;;;;;;-3.07;100.00;101770.50;5095239;28;20056;-53
2022/01/15 03:57:38;;;;;;;53.85;20.52;;;;;;;-3.15;100.00;101766.91;5094678;28;20052;-52
2022/01/15 04:00:09;;;;;;;45.70;19.23;;;;;;;-3.19;100.00;101760.81;5094375;28;20056;-52
2022/01/15 04:02:38;;;;;;;52.13;19.77;;;;;;;-3.20;100.00;101758.19;5094745;28;20060;-52
2022/01/15 04:05:07;;;;;;;55.72;21.30;;;;;;;-3.25;100.00;101759.84;5094414;28;20114;-52
2022/01/15 04:07:36;;;;;;;51.53;20.63;;;;;;;-3.30;100.00;101753.72;5093914;28;20056;-52
2022/01/15 04:10:06;;;;;;;63.22;22.30;;;;;;;-3.26;100.00;101750.31;5094595;28;20056;-52
2022/01/15 04:12:34;;;;;;;56.08;22.08;;;;;;;-3.20;100.00;101742.63;5093872;28;20052;-52
2022/01/15 04:15:04;;;;;;;59.15;22.52;;;;;;;-3.13;100.00;101748.78;5093628;28;20052;-52
2022/01/15 04:17:32;;;;;;;51.50;21.80;;;;;;;-3.17;100.00;101745.25;5094705;28;20055;-52
2022/01/15 04:20:01;;;;;;;55.45;22.35;;;;;;;-3.07;100.00;101743.69;5093808;28;20064;-52
2022/01/15 04:22:30;;;;;;;59.40;22.23;;;;;;;-3.01;100.00;101744.63;5094197;28;20134;-52
2022/01/15 04:24:58;;;;;;;65.78;22.20;;;;;;;-3.10;100.00;101746.22;5094944;28;20056;-52
2022/01/15 04:27:26;;;;;;;64.90;23.73;;;;;;;-3.08;100.00;101739.31;5093968;28;20052;-52
2022/01/15 04:29:56;;;;;;;64.47;24.05;;;;;;;-2.98;100.00;101748.97;5093718;28;20059;-52
2022/01/15 04:32:24;;;;;;;57.65;23.52;;;;;;;-2.90;100.00;101756.88;5094833;28;20052;-52
2022/01/15 04:34:53;;;;;;;62.00;22.25;;;;;;;-2.86;100.00;101753.47;5094068;28;20052;-52
2022/01/15 04:37:24;;;;;;;60.22;23.27;;;;;;;-2.82;100.00;101743.13;5093691;28;20052;-52
2022/01/15 04:39:52;;;;;;;56.92;23.05;;;;;;;-2.81;100.00;101741.41;5094194;28;20052;-52
2022/01/15 04:42:20;;;;;;;63.85;24.67;;;;;;;-2.78;100.00;101740.59;5093654;28;20070;-52
2022/01/15 04:44:49;;;;;;;70.82;24.70;;;;;;;-2.68;100.00;101743.31;5094530;28;20384;-52
2022/01/15 04:47:17;;;;;;;65.07;24.83;;;;;;;-2.65;100.00;101742.47;5093561;28;20058;-52
2022/01/15 04:49:45;;;;;;;68.95;23.83;;;;;;;-2.57;100.00;101732.16;5093572;28;20056;-52
2022/01/15 04:52:13;;;;;;;73.55;26.20;;;;;;;-2.48;100.00;101727.09;5093470;28;20067;-52
2022/01/15 04:54:43;;;;;;;69.93;25.88;;;;;;;-2.51;100.00;101720.13;5098156;28;20063;-52
2022/01/15 04:57:11;;;;;;;67.45;26.58;;;;;;;-2.40;100.00;101722.84;5097470;28;20056;-52
2022/01/15 04:59:39;;;;;;;70.65;25.00;;;;;;;-2.42;100.00;101719.38;5097183;28;20426;-52
2022/01/15 05:02:08;;;;;;;60.15;24.63;;;;;;;-2.46;100.00;101715.84;5097130;28;20135;-52
2022/01/15 05:04:36;;;;;;;65.35;25.13;;;;;;;-2.42;100.00;101721.97;5096819;28;20063;-52
2022/01/15 05:07:10;;;;;;;62.20;24.92;;;;;;;-2.41;100.00;101710.69;5097935;28;20471;-52
2022/01/15 05:09:38;;;;;;;72.40;26.00;;;;;;;-2.37;100.00;101686.50;5097199;28;20070;-52
2022/01/15 05:12:12;;;;;;;68.97;26.70;;;;;;;-2.16;100.00;101711.81;5097615;28;20507;-52
2022/01/15 05:14:40;;;;;;;66.10;25.55;;;;;;;-2.12;100.00;101702.31;5097471;28;20066;-52
2022/01/15 05:17:09;;;;;;;67.72;27.10;;;;;;;-2.22;100.00;101701.34;5097370;28;20120;-52
2022/01/15 05:19:38;;;;;;;64.45;26.17;;;;;;;-2.15;100.00;101703.19;5096747;28;20063;-52
2022/01/15 05:22:06;;;;;;;62.53;25.50;;;;;;;-2.14;100.00;101704.03;5097074;28;20081;-52
2022/01/15 05:24:34;;;;;;;58.20;25.10;;;;;;;-2.01;100.00;101695.50;5096920;28;20430;-52
2022/01/15 05:27:03;;;;;;;66.63;25.77;;;;;;;-2.02;100.00;101704.13;5096641;28;20056;-52
2022/01/15 05:29:33;;;;;;;69.22;27.63;;;;;;;-1.87;100.00;101706.91;5096949;28;20052;-52
2022/01/15 05:32:01;;;;;;;66.93;26.15;;;;;;;-1.80;100.00;101704.31;5096745;28;20070;-52
2022/01/15 05:34:35;;;;;;;66.97;25.70;;;;;;;-1.77;100.00;101702.63;5096228;28;20137;-52
2022/01/15 05:37:04;;;;;;;65.88;27.67;;;;;;;-1.65;100.00;101703.56;5096409;28;20060;-52
2022/01/15 05:39:32;;;;;;;60.72;26.35;;;;;;;-1.72;100.00;101702.66;5096268;28;20052;-53
2022/01/15 05:42:00;;;;;;;68.30;26.92;;;;;;;-1.77;100.00;101705.22;5096335;28;20056;-52
2022/01/15 05:44:29;;;;;;;65.88;26.52;;;;;;;-1.64;100.00;101711.41;5095881;28;20515;-53
2022/01/15 05:46:58;;;;;;;71.72;27.48;;;;;;;-1.46;100.00;101699.34;5096018;28;20056;-53
2022/01/15 05:49:29;;;;;;;61.72;26.98;;;;;;;-1.47;100.00;101679.41;5096189;28;20063;-52
2022/01/15 05:51:57;;;;;;;69.45;27.52;;;;;;;-1.24;100.00;101696.03;5096964;28;20059;-53
2022/01/15 05:54:25;;;;;;;71.13;28.10;;;;;;;-1.07;100.00;101697.88;5096717;28;20056;-53
2022/01/15 05:56:54;;;;;;;68.07;30.50;;;;;;;-1.06;100.00;101679.66;5096318;28;20056;-53
2022/01/15 05:59:22;;;;;;;80.03;30.10;;;;;;;-0.73;100.00;101692.81;5096012;28;20059;-53
2022/01/15 06:01:50;;;;;;;73.90;31.30;;;;;;;-0.48;100.00;101689.41;5095917;28;20521;-53
2022/01/15 06:04:20;;;;;;;69.93;29.20;;;;;;;-0.39;100.00;101699.84;5095976;28;20062;-53
2022/01/15 06:06:48;;;;;;;68.80;28.85;;;;;;;-0.31;100.00;101696.38;5096179;28;20427;-53
2022/01/15 06:09:21;;;;;;;71.88;31.02;;;;;;;-0.21;100.00;101698.13;5096244;28;20102;-53
2022/01/15 06:11:50;;;;;;;74.05;29.67;;;;;;;-0.19;100.00;101699.88;5096263;28;20415;-53
2022/01/15 06:14:18;;;;;;;74.55;31.42;;;;;;;-0.03;100.00;101697.31;5095377;28;20048;-53
2022/01/15 06:16:46;;;;;;;78.03;31.33;;;;;;;0.08;100.00;101705.97;5095930;28;20414;-53
2022/01/15 06:19:15;;;;;;;60.15;28.45;;;;;;;0.08;100.00;101699.91;5095590;28;20052;-53
2022/01/15 06:21:44;;;;;;;70.13;30.67;;;;;;;0.07;100.00;101698.16;5095848;28;20056;-53
2022/01/15 06:24:13;;;;;;;64.38;29.75;;;;;;;0.08;100.00;101697.28;5095484;28;20066;-53
2022/01/15 06:26:41;;;;;;;63.75;28.80;;;;;;;0.08;100.00;101700.75;5095715;28;20418;-53
2022/01/15 06:29:09;;;;;;;63.38;26.98;;;;;;;0.19;100.00;101703.38;5096309;28;20095;-53
2022/01/15 06:31:38;;;;;;;72.00;29.02;;;;;;;0.28;100.00;101700.75;5095355;28;20067;-53
2022/01/15 06:34:06;;;;;;;68.30;31.20;;;;;;;0.33;100.00;101695.53;5095231;28;20062;-53
2022/01/15 06:36:34;;;;;;;61.30;29.13;;;;;;;0.35;100.00;101699.91;5096451;28;20118;-53
2022/01/15 06:39:04;;;;;;;57.53;28.13;;;;;;;0.33;100.00;101704.25;5096075;28;20056;-53
2022/01/15 06:41:32;;;;;;;60.65;28.52;;;;;;;0.38;100.00;101703.38;5095785;28;20052;-53
2022/01/15 06:44:00;;;;;;;62.67;28.90;;;;;;;0.39;100.00;101699.88;5095144;28;20067;-53
2022/01/15 06:46:29;;;;;;;56.13;28.33;;;;;;;0.38;100.00;101708.59;5096172;28;20051;-53
2022/01/15 06:48:57;;;;;;;60.35;28.73;;;;;;;0.44;100.00;101698.13;5095322;28;20056;-53
2022/01/15 06:51:25;;;;;;;57.90;28.25;;;;;;;0.46;100.00;101701.63;5094997;28;20070;-53
2022/01/15 06:53:53;;;;;;;55.95;26.05;;;;;;;0.45;100.00;101695.53;5095032;28;20515;-53
2022/01/15 06:56:23;;;;;;;58.92;27.05;;;;;;;0.45;100.00;101702.50;5095614;28;20059;-53
2022/01/15 06:58:51;;;;;;;50.17;24.65;;;;;;;0.36;100.00;101701.63;5095199;28;20060;-53
2022/01/15 07:01:19;;;;;;;50.63;23.02;;;;;;;0.22;100.00;101703.41;5094850;28;20052;-53
2022/01/15 07:03:48;;;;;;;41.60;19.95;;;;;;;0.12;100.00;101706.88;5095167;28;20095;-53
2022/01/15 07:06:16;;;;;;;46.17;21.20;;;;;;;0.05;100.00;101710.31;5094543;28;20057;-53
2022/01/15 07:08:44;;;;;;;48.15;23.02;;;;;;;0.04;100.00;101714.69;5094687;28;20058;-53
2022/01/15 07:11:12;;;;;;;47.42;22.75;;;;;;;0.08;100.00;101705.13;5094635;28;20056;-53
2022/01/15 07:13:42;;;;;;;46.78;24.13;;;;;;;0.13;100.00;101713.81;5094550;28;20506;-53
2022/01/15 07:16:10;;;;;;;53.22;26.73;;;;;;;0.21;100.00;101712.09;5095373;28;20056;-53
2022/01/15 07:18:38;;;;;;;55.88;26.98;;;;;;;0.31;100.00;101708.59;5094852;28;20109;-53
2022/01/15 07:21:06;;;;;;;55.65;26.35;;;;;;;0.35;100.00;101707.75;5095082;28;20052;-53
2022/01/15 07:23:35;;;;;;;51.42;26.00;;;;;;;0.41;100.00;101713.81;5094751;28;20059;-53
2022/01/15 07:26:03;;;;;;;58.00;28.02;;;;;;;0.47;100.00;101711.19;5094137;28;20055;-53
2022/01/15 07:28:31;;;;;;;58.40;29.08;;;;;;;0.52;100.00;101712.94;5094724;28;20063;-53
2022/01/15 07:31:01;;;;;;;56.33;29.23;;;;;;;0.59;100.00;101712.91;5095399;28;20422;-53
2022/01/15 07:33:30;;;;;;;62.30;30.80;;;;;;;0.66;100.00;101707.69;5095113;28;20057;-53
2022/01/15 07:35:58;;;;;;;63.33;30.90;;;;;;;0.68;100.00;101708.53;5095191;28;20048;-53
2022/01/15 07:38:26;;;;;;;68.78;31.58;;;;;;;0.71;100.00;101705.06;5095024;28;20071;-53
2022/01/15 07:40:57;;;;;;;65.28;30.83;;;;;;;0.70;100.00;101709.41;5094935;28;20052;-53
2022/01/15 07:43:26;;;;;;;61.55;30.05;;;;;;;0.69;100.00;101707.69;5093985;28;20064;-53
2022/01/15 07:45:54;;;;;;;55.10;29.08;;;;;;;0.63;100.00;101697.25;5094561;28;20063;-53
2022/01/15 07:48:24;;;;;;;53.03;27.67;;;;;;;0.55;100.00;101702.50;5094744;28;20052;-53
2022/01/15 07:50:53;;;;;;;49.78;26.42;;;;;;;0.48;100.00;101699.88;5093896;28;20059;-53
2022/01/15 07:53:22;;;;;;;44.00;24.00;;;;;;;0.38;100.00;101693.81;5094081;28;20064;-53
2022/01/15 07:55:50;;;;;;;45.03;24.30;;;;;;;0.29;100.00;101699.03;5094648;28;20056;-53
2022/01/15 07:58:18;;;;;;;44.25;23.55;;;;;;;0.18;100.00;101693.81;5094022;28;20052;-53
2022/01/15 08:00:47;;;;;;;45.20;23.95;;;;;;;0.09;100.00;101696.44;5094300;28;20060;-53
2022/01/15 08:03:15;;;;;;;47.90;24.63;;;;;;;0.03;100.00;101696.41;5094028;28;20117;-53
2022/01/15 08:05:45;;;;;;;56.63;27.05;;;;;;;0.04;100.00;101700.78;5095186;28;20434;-53
2022/01/15 08:08:13;;;;;;;58.40;28.08;;;;;;;0.20;100.00;101702.50;5095064;28;20063;-53
2022/01/15 08:10:41;;;;;;;59.70;30.00;;;;;;;0.49;100.00;101707.72;5094242;28;20064;-53
2022/01/15 08:13:09;;;;;;;63.25;28.50;;;;;;;0.67;100.00;101701.59;5094494;28;20052;-53
2022/01/15 08:15:38;;;;;;;61.35;29.63;;;;;;;0.72;100.00;101705.06;5094389;28;20056;-53
2022/01/15 08:18:06;;;;;;;57.50;30.17;;;;;;;0.80;100.00;101709.41;5094411;28;20052;-53
2022/01/15 08:20:34;;;;;;;58.45;28.98;;;;;;;0.87;100.00;101709.38;5094677;28;20075;-53
2022/01/15 08:23:04;;;;;;;57.50;31.77;;;;;;;1.00;100.00;101715.44;5094451;28;20056;-53
2022/01/15 08:25:32;;;;;;;62.63;31.77;;;;;;;1.12;100.00;101717.13;5093537;28;20056;-53
2022/01/15 08:28:01;;;;;;;67.07;33.33;;;;;;;1.22;100.00;101704.91;5095395;28;20056;-53
2022/01/15 08:30:29;;;;;;;64.35;32.88;;;;;;;1.37;100.00;101702.22;5098320;28;20063;-53
2022/01/15 08:32:58;;;;;;;66.90;33.90;;;;;;;1.45;100.00;101697.81;5097699;28;20483;-53
2022/01/15 08:35:26;;;;;;;70.15;33.25;;;;;;;1.58;100.00;101697.75;5097600;28;20060;-53
2022/01/15 08:37:55;;;;;;;62.78;32.50;;;;;;;1.68;100.00;101704.66;5097550;28;20056;-53
2022/01/15 08:40:25;;;;;;;65.72;34.47;;;;;;;1.79;100.00;101701.97;5097820;28;20052;-53
2022/01/15 08:42:53;;;;;;;64.53;33.40;;;;;;;1.87;100.00;101710.66;5098034;28;20526;-53
2022/01/15 08:45:21;;;;;;;61.08;32.10;;;;;;;1.98;100.00;101707.94;5098027;28;20064;-53
2022/01/15 08:47:49;;;;;;;66.88;33.15;;;;;;;2.04;100.00;101705.28;5098547;28;20056;-53
2022/01/15 08:50:18;;;;;;;63.28;31.83;;;;;;;2.09;100.00;101708.75;5097237;28;20056;-53
2022/01/15 08:52:46;;;;;;;68.30;35.13;;;;;;;2.13;100.00;101710.44;5097247;28;20067;-53
2022/01/15 08:55:15;;;;;;;61.58;32.15;;;;;;;2.15;100.00;101695.63;5098372;28;20427;-53
2022/01/15 08:57:45;;;;;;;58.17;30.48;;;;;;;2.29;100.00;101697.25;5097184;28;20499;-53
2022/01/15 09:00:16;;;;;;;56.10;30.88;;;;;;;2.41;100.00;101692.75;5097568;28;20052;-53
2022/01/15 09:02:44;;;;;;;54.58;28.77;;;;;;;2.59;100.00;101701.34;5096843;28;20056;-53
2022/01/15 09:05:13;;;;;;;52.83;30.00;;;;;;;2.73;100.00;101693.31;5098199;28;20067;-54
2022/01/15 09:07:42;;;;;;;60.75;31.73;;;;;;;2.78;100.00;101694.16;5097308;28;20052;-53
2022/01/15 09:10:10;;;;;;;61.10;31.77;;;;;;;2.94;100.00;101703.56;5096962;28;20418;-53
2022/01/15 09:12:41;;;;;;;61.72;32.95;;;;;;;3.10;100.00;101706.00;5097498;28;20056;-53
2022/01/15 09:15:30;;;;;;;59.90;30.98;;;;;;;3.24;100.00;101711.94;5097980;28;20143;-53
2022/01/15 09:17:59;;;;;;;64.63;31.50;;;;;;;3.39;100.00;101712.66;5097152;28;20052;-53
2022/01/15 09:20:27;;;;;;;65.07;31.42;;;;;;;3.40;100.00;101719.66;5097065;28;20082;-53
2022/01/15 09:22:55;;;;;;;51.58;29.25;;;;;;;3.46;100.00;101709.03;5096952;28;20063;-53
2022/01/15 09:25:25;;;;;;;49.42;27.45;;;;;;;3.54;100.00;101710.66;5097863;28;20368;-53
2022/01/15 09:30:40;;;;;;;48.88;27.35;;;;;;;3.88;100.00;101709.31;5096342;28;20056;-53
2022/01/15 09:33:08;;;;;;;54.33;27.55;;;;;;;4.06;100.00;101703.78;5096516;28;20507;-53
2022/01/15 09:35:37;;;;;;;44.47;25.52;;;;;;;4.29;100.00;101710.44;5096508;28;20533;-53
2022/01/15 09:38:07;;;;;;;50.80;26.23;;;;;;;4.44;100.00;101701.44;5096326;28;20097;-53
2022/01/15 09:40:35;;;;;;;45.13;24.83;;;;;;;4.70;100.00;101703.56;5096132;28;20056;-53
2022/01/15 09:43:04;;;;;;;38.58;22.90;;;;;;;4.92;100.00;101703.16;5096635;28;20056;-54
2022/01/15 09:45:35;;;;;;;41.33;23.60;;;;;;;5.10;100.00;101705.44;5097220;28;20063;-54
2022/01/15 09:48:07;;;;;;;36.63;22.70;;;;;;;5.37;100.00;101703.13;5097332;28;20429;-54
2022/01/15 09:50:37;;;;;;;25.20;15.75;;;;;;;5.70;100.00;101706.78;5096016;28;20060;-54
2022/01/15 09:53:05;;;;;;;33.70;20.00;;;;;;;5.89;100.00;101709.84;5097364;28;20063;-54
2022/01/15 09:55:33;;;;;;;27.92;16.75;;;;;;;6.41;100.00;101706.88;5096847;28;20056;-54
2022/01/15 09:58:02;;;;;;;27.48;17.27;;;;;;;7.59;100.00;101707.97;5096043;28;20078;-54
2022/01/15 10:00:31;;;;;;;24.33;15.25;;;;;;;8.70;85.68;101705.25;5097051;28;20387;-54
2022/01/15 10:03:01;;;;;;;27.57;13.97;;;;;;;9.81;79.91;101702.88;5097083;28;20052;-54
2022/01/15 10:05:31;;;;;;;17.90;11.38;;;;;;;11.46;66.47;101701.97;5095839;28;20066;-54
2022/01/15 10:08:02;;;;;;;18.65;11.52;;;;;;;12.58;61.47;101690.31;5096125;28;20063;-55
2022/01/15 10:10:36;;;;;;;21.27;10.85;;;;;;;13.92;53.96;101704.38;5096955;28;20083;-55
2022/01/15 10:13:15;;;;;;;18.73;9.77;;;;;;;15.02;50.48;101697.91;5096033;28;20048;-55
2022/01/15 10:15:45;;;;;;;15.88;10.20;;;;;;;15.83;45.72;101697.25;5096759;28;20063;-55
2022/01/15 10:18:24;;;;;;;11.88;8.98;;;;;;;16.84;43.92;101697.59;5095683;28;20056;-55
2022/01/15 10:20:56;;;;;;;13.27;9.25;;;;;;;-145.00;100.00;77016.53;5095725;28;20062;-55
2022/01/15 10:23:25;;;;;;;15.80;9.40;;;;;;;17.97;39.82;101693.09;5095355;28;20063;-55
2022/01/15 10:26:13;;;;;;;14.05;8.82;;;;;;;17.45;39.63;101700.44;5095347;28;20139;-55
2022/01/15 10:28:53;;;;;;;12.38;8.80;;;;;;;16.34;40.49;101692.06;5096124;28;20078;-55
2022/01/15 10:31:23;;;;;;;17.52;9.65;;;;;;;15.89;43.07;101686.16;5095162;28;20052;-55
2022/01/15 10:33:51;;;;;;;15.10;10.00;;;;;;;14.70;44.17;101679.38;5096316;28;20056;-55
2022/01/15 10:36:24;;;;;;;15.00;9.63;;;;;;;13.36;48.92;101679.97;5095211;28;20062;-55
2022/01/15 10:38:52;;;;;;;13.30;8.98;;;;;;;12.51;51.35;101675.59;5095309;28;20498;-55
2022/01/15 10:41:31;;;;;;;12.73;9.02;;;;;;;12.77;52.55;101682.22;5095522;28;20052;-55
2022/01/15 10:43:59;;;;;;;19.17;9.02;;;;;;;13.06;50.58;101676.28;5095455;28;20052;-55
2022/01/15 10:46:35;;;;;;;17.58;10.52;;;;;;;12.84;50.56;101682.75;5095189;28;20099;-55
2022/01/15 10:49:22;;;;;;;17.17;9.95;;;;;;;12.31;52.38;101679.28;5094898;28;20052;-55
2022/01/15 10:52:08;;;;;;;16.75;9.38;;;;;;;11.79;53.73;101682.69;5094317;28;20411;-54
2022/01/15 10:54:51;;;;;;;17.17;10.10;;;;;;;11.16;55.87;101680.34;5095082;28;20056;-54
2022/01/15 10:57:20;;;;;;;17.77;10.50;;;;;;;11.18;58.30;101677.63;5096118;28;20411;-54
2022/01/15 11:00:11;;;;;;;17.27;10.35;;;;;;;11.22;56.53;101669.44;5094915;28;20071;-54
2022/01/15 11:02:39;;;;;;;18.33;10.73;;;;;;;11.40;56.44;101674.81;5094512;28;20056;-54
2022/01/15 11:05:38;;;;;;;17.92;10.48;;;;;;;11.45;56.44;101667.53;5094593;28;20073;-54
2022/01/15 11:08:18;;;;;;;15.93;9.70;;;;;;;11.69;54.97;101665.47;4993140;28;20065;-54
2022/01/15 11:10:49;;;;;;;23.67;10.52;;;;;;;12.01;54.73;101657.75;5080185;28;20060;-54
2022/01/15 11:13:18;;;;;;;16.35;9.60;;;;;;;12.25;54.03;101659.19;5094454;28;20067;-54
2022/01/15 11:15:49;;;;;;;14.68;9.57;;;;;;;12.16;53.34;101664.94;5095756;28;20060;-54
2022/01/15 11:18:24;;;;;;;15.90;10.05;;;;;;;12.02;53.63;101668.31;5095657;28;20059;-54
2022/01/15 11:20:54;;;;;;;18.42;9.95;;;;;;;12.10;52.76;101665.25;5094991;28;20048;-54
2022/01/15 11:23:24;;;;;;;17.60;10.52;;;;;;;11.69;54.84;101665.47;5095213;28;20062;-54
2022/01/15 11:25:55;;;;;;;16.30;10.88;;;;;;;11.49;54.94;101661.13;5094243;28;20056;-54
2022/01/15 11:28:25;;;;;;;16.85;10.80;;;;;;;11.47;56.23;101657.69;5094513;28;20052;-54
2022/01/15 11:30:55;;;;;;;20.05;11.55;;;;;;;11.77;56.22;101658.00;5095637;28;20052;-54
2022/01/15 11:33:28;;;;;;;15.85;10.75;;;;;;;11.97;55.92;101653.50;5094625;28;20545;-54
2022/01/15 11:35:56;;;;;;;24.73;11.40;;;;;;;12.05;54.62;101652.22;5094356;28;20055;-54